createdAt,value
2019-04-01T00:00:18.925Z,11.50
2019-04-01T00:02:45.892Z,11.45
2019-04-01T00:05:13.114Z,10.48
2019-04-01T00:07:39.913Z,12.35
2019-04-01T00:10:07.614Z,14.30
2019-04-01T00:12:34.435Z,14.50
2019-04-01T00:15:01.668Z,14.87
2019-04-01T00:17:28.700Z,14.43
2019-04-01T00:19:55.619Z,13.78
2019-04-01T00:22:22.494Z,14.47
2019-04-01T00:24:51.738Z,13.72
2019-04-01T00:27:18.572Z,14.10
2019-04-01T00:29:45.384Z,14.90
2019-04-01T00:32:14.203Z,15.13
2019-04-01T00:34:41.539Z,15.88
2019-04-01T00:37:08.604Z,16.48
2019-04-01T00:39:35.752Z,14.35
2019-04-01T00:42:07.818Z,15.15
2019-04-01T00:44:34.907Z,14.30
2019-04-01T00:47:01.787Z,16.05
2019-04-01T00:49:28.960Z,16.35
2019-04-01T00:51:55.705Z,16.37
2019-04-01T00:54:22.459Z,18.55
2019-04-01T00:56:49.564Z,19.07
2019-04-01T00:59:16.457Z,18.65
2019-04-01T01:01:43.326Z,17.40
2019-04-01T01:04:10.324Z,17.77
2019-04-01T01:06:37.209Z,17.98
2019-04-01T01:09:04.924Z,16.55
2019-04-01T01:11:32.045Z,18.65
2019-04-01T01:13:58.972Z,17.55
2019-04-01T01:16:26.069Z,17.90
2019-04-01T01:18:52.933Z,20.17
2019-04-01T01:21:20.280Z,19.65
2019-04-01T01:23:47.003Z,20.72
2019-04-01T01:26:13.823Z,19.55
2019-04-01T01:28:40.739Z,19.67
2019-04-01T01:31:07.585Z,18.62
2019-04-01T01:33:34.669Z,18.62
2019-04-01T01:36:01.440Z,18.75
2019-04-01T01:38:29.584Z,19.45
2019-04-01T01:40:58.405Z,18.25
2019-04-01T01:43:25.753Z,18.00
2019-04-01T01:45:52.589Z,19.25
2019-04-01T01:48:19.356Z,18.55
2019-04-01T01:50:48.044Z,19.73
2019-04-01T01:53:14.836Z,22.13
2019-04-01T01:55:41.638Z,22.13
2019-04-01T01:58:10.458Z,21.80
2019-04-01T02:00:39.498Z,22.30
2019-04-01T02:03:06.835Z,21.05
2019-04-01T02:05:34.117Z,20.68
2019-04-01T02:08:01.075Z,20.45
2019-04-01T02:10:28.196Z,20.12
2019-04-01T02:12:55.108Z,20.95
2019-04-01T02:15:22.460Z,23.00
2019-04-01T02:17:49.641Z,23.25
2019-04-01T02:20:17.031Z,23.52
2019-04-01T02:22:45.765Z,22.15
2019-04-01T02:25:14.631Z,23.85
2019-04-01T02:27:41.449Z,22.25
2019-04-01T02:30:08.689Z,22.70
2019-04-01T02:32:35.792Z,25.52
2019-04-01T02:35:04.272Z,24.23
2019-04-01T02:37:31.508Z,25.95
2019-04-01T02:39:58.771Z,24.70
2019-04-01T02:42:25.739Z,24.65
2019-04-01T02:44:53.035Z,25.88
2019-04-01T02:47:19.931Z,26.12
2019-04-01T02:49:46.864Z,26.10
2019-04-01T02:52:13.737Z,26.85
2019-04-01T02:54:40.802Z,26.62
2019-04-01T02:57:07.811Z,26.57
2019-04-01T02:59:34.961Z,26.80
2019-04-01T03:02:05.272Z,26.68
2019-04-01T03:04:32.508Z,26.97
2019-04-01T03:06:59.357Z,26.52
2019-04-01T03:09:26.503Z,27.05
2019-04-01T03:11:53.236Z,26.55
2019-04-01T03:14:20.658Z,26.27
2019-04-01T03:16:47.389Z,26.57
2019-04-01T03:19:14.354Z,26.25
2019-04-01T03:21:41.171Z,26.20
2019-04-01T03:24:07.955Z,27.48
2019-04-01T03:26:34.800Z,26.82
2019-04-01T03:29:01.789Z,26.33
2019-04-01T03:31:28.896Z,26.80
2019-04-01T03:33:55.854Z,27.90
2019-04-01T03:36:23.740Z,28.62
2019-04-01T03:38:50.856Z,27.62
2019-04-01T03:41:17.910Z,26.07
2019-04-01T03:43:44.811Z,27.48
2019-04-01T03:46:12.253Z,27.95
2019-04-01T03:48:39.648Z,27.82
2019-04-01T03:51:06.682Z,27.32
2019-04-01T03:53:33.590Z,28.05
2019-04-01T03:56:00.679Z,27.77
2019-04-01T03:58:27.949Z,27.25
2019-04-01T04:00:54.791Z,27.87
2019-04-01T04:03:21.912Z,27.65
2019-04-01T04:05:48.726Z,26.82
2019-04-01T04:08:15.815Z,27.02
2019-04-01T04:10:42.771Z,26.90
2019-04-01T04:13:10.081Z,27.50
2019-04-01T04:15:37.209Z,26.17
2019-04-01T04:18:04.012Z,27.58
2019-04-01T04:20:31.103Z,26.73
2019-04-01T04:23:02.934Z,27.95
2019-04-01T04:25:31.690Z,27.95
2019-04-01T04:28:00.662Z,27.17
2019-04-01T04:30:30.263Z,28.73
2019-04-01T04:32:57.602Z,28.83
2019-04-01T04:35:24.908Z,28.32
2019-04-01T04:37:54.528Z,29.18
2019-04-01T04:40:21.413Z,27.80
2019-04-01T04:42:48.624Z,28.50
2019-04-01T04:45:15.848Z,29.23
2019-04-01T04:47:43.020Z,29.55
2019-04-01T04:50:10.126Z,28.62
2019-04-01T04:52:37.265Z,29.07
2019-04-01T04:55:05.217Z,28.10
2019-04-01T04:57:32.515Z,28.45
2019-04-01T05:00:04.554Z,28.30
2019-04-01T05:02:31.769Z,29.60
2019-04-01T05:04:59.153Z,27.93
2019-04-01T05:07:25.953Z,29.25
2019-04-01T05:09:53.466Z,28.77
2019-04-01T05:12:20.457Z,29.87
2019-04-01T05:14:47.645Z,27.82
2019-04-01T05:17:14.591Z,28.80
2019-04-01T05:19:42.456Z,30.45
2019-04-01T05:22:10.106Z,28.75
2019-04-01T05:24:38.034Z,29.63
2019-04-01T05:27:07.257Z,28.65
2019-04-01T05:29:36.731Z,28.30
2019-04-01T05:32:04.186Z,28.83
2019-04-01T05:34:34.666Z,28.65
2019-04-01T05:37:01.498Z,28.07
2019-04-01T05:39:28.544Z,29.05
2019-04-01T05:41:55.513Z,28.87
2019-04-01T05:44:22.748Z,28.85
2019-04-01T05:46:50.164Z,28.20
2019-04-01T05:49:19.849Z,29.25
2019-04-01T05:51:46.817Z,28.83
2019-04-01T05:54:13.834Z,29.37
2019-04-01T05:56:41.124Z,30.30
2019-04-01T05:59:10.383Z,29.57
2019-04-01T06:01:41.992Z,28.85
2019-04-01T06:04:09.717Z,29.50
2019-04-01T06:06:36.608Z,30.95
2019-04-01T06:09:07.116Z,29.23
2019-04-01T06:11:35.315Z,30.48
2019-04-01T06:14:03.661Z,30.00
2019-04-01T06:16:33.954Z,29.07
2019-04-01T06:19:01.377Z,29.87
2019-04-01T06:21:29.214Z,30.30
2019-04-01T06:23:57.357Z,31.07
2019-04-01T06:26:24.751Z,29.75
2019-04-01T06:28:52.348Z,30.52
2019-04-01T06:31:19.246Z,30.85
2019-04-01T06:33:46.706Z,30.48
2019-04-01T06:36:13.837Z,30.37
2019-04-01T06:38:41.282Z,30.32
2019-04-01T06:41:08.549Z,29.48
2019-04-01T06:43:36.950Z,30.60
2019-04-01T06:46:04.481Z,32.13
2019-04-01T06:48:32.990Z,30.97
2019-04-01T06:50:59.847Z,29.48
2019-04-01T06:53:30.304Z,31.15
2019-04-01T06:55:57.656Z,30.55
2019-04-01T06:58:25.205Z,32.03
2019-04-01T07:00:52.224Z,31.35
2019-04-01T07:03:19.470Z,31.52
2019-04-01T07:05:46.325Z,31.95
2019-04-01T07:08:13.822Z,31.50
2019-04-01T07:10:41.415Z,32.13
2019-04-01T07:13:08.601Z,32.38
2019-04-01T07:15:35.656Z,30.88
2019-04-01T07:18:03.767Z,31.85
2019-04-01T07:20:32.159Z,32.55
2019-04-01T07:22:59.482Z,30.60
2019-04-01T07:25:26.676Z,31.42
2019-04-01T07:27:53.830Z,30.37
2019-04-01T07:30:21.170Z,31.87
2019-04-01T07:32:50.348Z,31.95
2019-04-01T07:35:18.017Z,32.05
2019-04-01T07:37:47.249Z,31.35
2019-04-01T07:40:14.580Z,31.27
2019-04-01T07:42:42.063Z,31.25
2019-04-01T07:45:12.509Z,31.60
2019-04-01T07:47:39.517Z,30.97
2019-04-01T07:50:08.188Z,31.65
2019-04-01T07:52:36.620Z,31.85
2019-04-01T07:55:07.615Z,31.42
2019-04-01T07:57:35.573Z,31.23
2019-04-01T08:00:08.970Z,31.93
2019-04-01T08:02:35.999Z,31.70
2019-04-01T08:05:04.581Z,31.20
2019-04-01T08:07:31.791Z,31.80
2019-04-01T08:09:58.923Z,29.82
2019-04-01T08:12:27.878Z,31.00
2019-04-01T08:14:55.386Z,30.57
2019-04-01T08:17:22.193Z,31.82
2019-04-01T08:19:49.257Z,32.23
2019-04-01T08:22:16.390Z,31.40
2019-04-01T08:24:43.300Z,31.20
2019-04-01T08:27:10.640Z,30.62
2019-04-01T08:29:37.665Z,31.20
2019-04-01T08:32:04.764Z,31.62
2019-04-01T08:34:31.821Z,31.68
2019-04-01T08:36:59.137Z,30.65
2019-04-01T08:39:26.317Z,30.95
2019-04-01T08:41:53.878Z,30.32
2019-04-01T08:44:20.966Z,30.65
2019-04-01T08:46:48.249Z,30.52
2019-04-01T08:49:15.717Z,30.48
2019-04-01T08:51:43.430Z,30.20
2019-04-01T08:54:11.064Z,29.10
2019-04-01T08:56:40.975Z,30.23
2019-04-01T08:59:08.564Z,30.50
2019-04-01T09:01:35.964Z,29.67
2019-04-01T09:04:03.792Z,30.02
2019-04-01T09:06:31.541Z,29.90
2019-04-01T09:08:59.850Z,28.77
2019-04-01T09:11:27.596Z,31.12
2019-04-01T09:13:55.251Z,27.75
2019-04-01T09:16:22.326Z,31.85
2019-04-01T09:18:49.847Z,29.85
2019-04-01T09:21:16.925Z,29.52
2019-04-01T09:23:44.100Z,29.48
2019-04-01T09:26:11.122Z,29.18
2019-04-01T09:28:39.580Z,29.85
2019-04-01T09:31:06.672Z,30.00
2019-04-01T09:33:33.530Z,29.87
2019-04-01T09:36:00.289Z,30.45
2019-04-01T09:38:27.257Z,28.27
2019-04-01T09:40:54.494Z,31.80
2019-04-01T09:43:21.847Z,31.75
2019-04-01T09:45:48.653Z,31.00
2019-04-01T09:48:16.251Z,29.10
2019-04-01T09:50:43.079Z,30.27
2019-04-01T09:53:10.133Z,30.08
2019-04-01T09:55:37.802Z,31.33
2019-04-01T09:58:04.844Z,32.20
2019-04-01T10:00:31.766Z,29.52
2019-04-01T10:02:58.528Z,31.27
2019-04-01T10:05:25.459Z,30.57
2019-04-01T10:07:52.267Z,31.45
2019-04-01T10:10:19.776Z,30.17
2019-04-01T10:12:49.992Z,30.00
2019-04-01T10:15:16.889Z,31.02
2019-04-01T10:17:46.027Z,29.48
2019-04-01T10:20:14.341Z,28.77
2019-04-01T10:22:41.666Z,29.23
2019-04-01T10:25:12.722Z,30.02
2019-04-01T10:27:39.406Z,31.68
2019-04-01T10:30:09.434Z,31.15
2019-04-01T10:32:36.673Z,29.80
2019-04-01T10:35:06.658Z,28.25
2019-04-01T10:37:34.315Z,27.73
2019-04-01T10:40:01.076Z,28.62
2019-04-01T10:42:27.988Z,28.02
2019-04-01T10:44:55.313Z,30.35
2019-04-01T10:47:24.798Z,28.98
2019-04-01T10:49:51.992Z,27.40
2019-04-01T10:52:19.617Z,28.55
2019-04-01T10:54:49.177Z,29.90
2019-04-01T10:57:15.987Z,30.10
2019-04-01T10:59:42.874Z,29.02
2019-04-01T11:02:09.968Z,28.32
2019-04-01T11:04:37.210Z,29.70
2019-04-01T11:07:04.897Z,29.35
2019-04-01T11:09:38.484Z,29.40
2019-04-01T11:12:03.800Z,27.65
2019-04-01T11:14:30.926Z,30.02
2019-04-01T11:16:58.535Z,28.55
2019-04-01T11:19:26.486Z,27.02
2019-04-01T11:21:53.322Z,28.60
2019-04-01T11:24:21.113Z,28.90
2019-04-01T11:26:48.179Z,27.90
2019-04-01T11:29:15.847Z,28.35
2019-04-01T11:31:45.131Z,27.60
2019-04-01T11:34:12.920Z,27.58
2019-04-01T11:36:40.377Z,27.02
2019-04-01T11:39:11.974Z,27.73
2019-04-01T11:41:39.490Z,27.90
2019-04-01T11:44:07.025Z,28.35
2019-04-01T11:46:36.165Z,27.82
2019-04-01T11:49:03.522Z,26.70
2019-04-01T11:51:33.561Z,26.80
2019-04-01T11:53:59.604Z,28.73
2019-04-01T11:56:27.792Z,28.50
2019-04-01T11:58:56.733Z,28.87
2019-04-01T12:01:24.420Z,29.00
2019-04-01T12:03:51.316Z,25.72
2019-04-01T12:06:18.370Z,27.50
2019-04-01T12:08:46.083Z,26.17
2019-04-01T12:11:13.425Z,26.52
2019-04-01T12:13:40.918Z,26.75
2019-04-01T12:16:10.810Z,24.95
2019-04-01T12:18:37.756Z,25.43
2019-04-01T12:21:05.660Z,25.10
2019-04-01T12:23:32.974Z,27.50
2019-04-01T12:26:14.354Z,25.23
2019-04-01T12:28:29.332Z,24.32
2019-04-01T12:30:56.386Z,25.95
2019-04-01T12:33:26.312Z,26.05
2019-04-01T12:35:55.257Z,24.52
2019-04-01T12:38:22.142Z,25.27
2019-04-01T12:40:49.035Z,25.48
2019-04-01T12:43:16.432Z,25.17
2019-04-01T12:45:43.620Z,28.02
2019-04-01T12:48:13.086Z,23.95
2019-04-01T12:50:40.100Z,25.45
2019-04-01T12:53:07.079Z,24.20
2019-04-01T12:55:34.764Z,23.47
2019-04-01T12:58:01.762Z,24.55
2019-04-01T13:00:29.455Z,24.20
2019-04-01T13:02:56.768Z,23.60
2019-04-01T13:05:24.328Z,22.02
2019-04-01T13:07:54.302Z,23.12
2019-04-01T13:10:21.119Z,23.20
2019-04-01T13:12:47.979Z,25.60
2019-04-01T13:15:15.270Z,24.57
2019-04-01T13:17:42.159Z,25.80
2019-04-01T13:20:10.131Z,24.20
2019-04-01T13:22:38.162Z,23.80
2019-04-01T13:25:06.386Z,20.75
2019-04-01T13:27:33.182Z,24.35
2019-04-01T13:30:00.211Z,23.35
2019-04-01T13:32:26.974Z,23.65
2019-04-01T13:34:54.456Z,21.90
2019-04-01T13:37:21.453Z,21.15
2019-04-01T13:39:48.535Z,23.35
2019-04-01T13:42:15.564Z,24.75
2019-04-01T13:44:42.462Z,25.55
2019-04-01T13:47:09.204Z,25.80
2019-04-01T13:49:36.129Z,22.90
2019-04-01T13:52:03.919Z,24.52
2019-04-01T13:54:31.555Z,24.20
2019-04-01T13:57:02.856Z,23.55
2019-04-01T13:59:29.801Z,24.05
2019-04-01T14:01:57.216Z,24.18
2019-04-01T14:04:24.586Z,24.90
2019-04-01T14:06:52.936Z,55.95
2019-04-01T14:09:20.915Z,25.85
2019-04-01T14:11:49.158Z,24.57
2019-04-01T14:14:15.971Z,22.75
2019-04-01T14:16:45.745Z,24.45
2019-04-01T14:19:12.523Z,23.18
2019-04-01T14:21:39.432Z,23.22
2019-04-01T14:24:06.283Z,20.50
2019-04-01T14:26:33.426Z,24.40
2019-04-01T14:29:00.301Z,21.45
2019-04-01T14:31:27.131Z,23.85
2019-04-01T14:33:54.237Z,23.70
2019-04-01T14:36:33.272Z,22.15
2019-04-01T14:39:00.475Z,22.13
2019-04-01T14:41:27.328Z,22.22
2019-04-01T14:43:55.235Z,21.90
2019-04-01T14:46:24.429Z,19.35
2019-04-01T14:48:52.932Z,20.80
2019-04-01T14:51:19.786Z,21.10
2019-04-01T14:53:48.699Z,21.55
2019-04-01T14:56:15.544Z,21.52
2019-04-01T14:58:43.595Z,20.62
2019-04-01T15:01:12.074Z,20.35
2019-04-01T15:03:39.572Z,19.27
2019-04-01T15:06:08.135Z,18.35
2019-04-01T15:08:34.917Z,19.57
2019-04-01T15:11:01.846Z,18.40
2019-04-01T15:13:28.797Z,19.27
2019-04-01T15:15:55.785Z,17.70
2019-04-01T15:18:22.642Z,18.95
2019-04-01T15:20:52.390Z,17.95
2019-04-01T15:23:19.179Z,18.35
2019-04-01T15:25:46.258Z,17.90
2019-04-01T15:28:13.178Z,18.12
2019-04-01T15:30:40.013Z,17.85
2019-04-01T15:33:06.891Z,17.20
2019-04-01T15:35:33.829Z,17.52
2019-04-01T15:38:00.981Z,18.37
2019-04-01T15:40:28.160Z,18.50
2019-04-01T15:42:55.425Z,18.00
2019-04-01T15:45:22.789Z,17.90
2019-04-01T15:47:50.225Z,17.07
2019-04-01T15:50:28.450Z,16.87
2019-04-01T15:52:45.992Z,18.02
2019-04-01T15:55:15.180Z,16.90
2019-04-01T15:57:42.439Z,18.35
2019-04-01T16:00:10.926Z,18.17
2019-04-01T16:02:37.713Z,16.52
2019-04-01T16:05:07.236Z,17.40
2019-04-01T16:07:34.193Z,17.77
2019-04-01T16:10:01.255Z,18.15
2019-04-01T16:12:28.153Z,18.12
2019-04-01T16:14:55.325Z,18.52
2019-04-01T16:17:22.363Z,18.82
2019-04-01T16:19:49.732Z,18.60
2019-04-01T16:22:17.200Z,17.85
2019-04-01T16:24:44.984Z,17.67
2019-04-01T16:27:12.965Z,19.10
2019-04-01T16:29:40.252Z,18.42
2019-04-01T16:32:09.731Z,18.27
2019-04-01T16:34:37.103Z,18.27
2019-04-01T16:37:04.670Z,17.15
2019-04-01T16:39:33.408Z,18.48
2019-04-01T16:42:00.808Z,17.12
2019-04-01T16:44:28.121Z,18.17
2019-04-01T16:46:55.537Z,18.23
2019-04-01T16:49:23.177Z,18.02
2019-04-01T16:51:51.818Z,18.30
2019-04-01T16:54:21.047Z,16.65
2019-04-01T16:56:48.606Z,17.07
2019-04-01T16:59:15.652Z,16.55
2019-04-01T17:01:46.033Z,16.80
2019-04-01T17:04:17.156Z,17.67
2019-04-01T17:06:46.730Z,16.70
2019-04-01T17:09:13.757Z,16.50
2019-04-01T17:11:43.097Z,17.77
2019-04-01T17:14:10.892Z,16.62
2019-04-01T17:16:39.038Z,16.60
2019-04-01T17:19:07.045Z,17.40
2019-04-01T17:21:34.866Z,16.77
2019-04-01T17:24:01.805Z,17.07
2019-04-01T17:26:28.765Z,16.55
2019-04-01T17:28:56.432Z,16.75
2019-04-01T17:31:24.928Z,17.12
2019-04-01T17:33:52.074Z,17.02
2019-04-01T17:36:19.021Z,17.02
2019-04-01T17:38:48.124Z,16.57
2019-04-01T17:41:15.091Z,16.70
2019-04-01T17:43:45.246Z,16.90
2019-04-01T17:46:15.329Z,16.40
2019-04-01T17:48:43.786Z,19.07
2019-04-01T17:51:11.029Z,25.48
2019-04-01T17:53:37.822Z,25.90
2019-04-01T17:56:05.713Z,39.98
2019-04-01T17:58:32.795Z,36.63
2019-04-01T18:01:00.080Z,29.10
2019-04-01T18:03:27.081Z,23.90
2019-04-01T18:05:54.286Z,21.00
2019-04-01T18:08:21.228Z,21.12
2019-04-01T18:10:48.901Z,20.37
2019-04-01T18:13:16.175Z,17.87
2019-04-01T18:15:43.081Z,17.90
2019-04-01T18:18:10.226Z,17.90
2019-04-01T18:20:37.559Z,16.10
2019-04-01T18:23:05.056Z,14.47
2019-04-01T18:25:32.551Z,13.72
2019-04-01T18:27:59.472Z,13.25
2019-04-01T18:30:27.377Z,32.00
2019-04-01T18:32:55.343Z,13.93
2019-04-01T18:35:25.474Z,12.85
2019-04-01T18:37:52.664Z,12.37
2019-04-01T18:40:31.797Z,13.55
2019-04-01T18:42:48.571Z,13.25
2019-04-01T18:45:15.799Z,13.35
2019-04-01T18:47:45.627Z,13.58
2019-04-01T18:50:14.267Z,15.13
2019-04-01T18:52:42.088Z,14.65
2019-04-01T18:55:11.006Z,13.68
2019-04-01T18:57:38.019Z,14.38
2019-04-01T19:00:09.047Z,14.78
2019-04-01T19:02:36.184Z,14.63
2019-04-01T19:05:04.655Z,13.90
2019-04-01T19:07:32.058Z,13.83
2019-04-01T19:10:05.869Z,13.68
2019-04-01T19:12:30.659Z,12.95
2019-04-01T19:14:57.964Z,12.50
2019-04-01T19:17:25.037Z,12.13
2019-04-01T19:19:52.405Z,12.93
2019-04-01T19:22:19.449Z,13.05
2019-04-01T19:24:46.819Z,13.30
2019-04-01T19:27:13.847Z,11.50
2019-04-01T19:29:43.311Z,12.75
2019-04-01T19:32:14.522Z,12.82
2019-04-01T19:34:40.459Z,12.07
2019-04-01T19:37:08.206Z,19.25
2019-04-01T19:39:35.553Z,54.58
2019-04-01T19:42:02.801Z,21.40
2019-04-01T19:44:29.862Z,18.05
2019-04-01T19:46:56.833Z,15.28
2019-04-01T19:49:24.613Z,16.45
2019-04-01T19:51:51.689Z,14.10
2019-04-01T19:54:26.840Z,13.95
2019-04-01T19:56:49.627Z,13.88
2019-04-01T19:59:17.296Z,13.32
2019-04-01T20:01:45.089Z,13.72
2019-04-01T20:04:14.277Z,13.75
2019-04-01T20:06:44.101Z,14.30
2019-04-01T20:09:14.066Z,17.45
2019-04-01T20:11:44.769Z,15.58
2019-04-01T20:14:12.053Z,16.30
2019-04-01T20:16:41.125Z,13.88
2019-04-01T20:19:08.330Z,21.90
2019-04-01T20:21:37.136Z,19.60
2019-04-01T20:24:04.198Z,17.05
2019-04-01T20:26:31.599Z,43.00
2019-04-01T20:28:58.906Z,21.52
2019-04-01T20:31:25.851Z,31.90
2019-04-01T20:33:53.491Z,38.85
2019-04-01T20:36:28.426Z,26.27
2019-04-01T20:38:55.248Z,17.45
2019-04-01T20:41:23.736Z,14.30
2019-04-01T20:43:50.985Z,14.70
2019-04-01T20:46:20.428Z,14.20
2019-04-01T20:48:47.865Z,12.90
2019-04-01T20:51:16.826Z,13.32
2019-04-01T20:53:43.909Z,12.33
2019-04-01T20:56:12.158Z,12.58
2019-04-01T20:58:39.058Z,12.28
2019-04-01T21:01:09.045Z,13.30
2019-04-01T21:03:38.534Z,12.43
2019-04-01T21:06:06.879Z,13.58
2019-04-01T21:08:38.054Z,12.30
2019-04-01T21:11:07.470Z,13.75
2019-04-01T21:13:35.138Z,13.30
2019-04-01T21:16:03.879Z,13.50
2019-04-01T21:18:31.743Z,14.33
2019-04-01T21:20:58.949Z,13.98
2019-04-01T21:23:26.345Z,14.55
2019-04-01T21:25:53.798Z,14.15
2019-04-01T21:28:22.867Z,14.28
2019-04-01T21:30:49.811Z,14.30
2019-04-01T21:33:16.867Z,14.38
2019-04-01T21:35:46.655Z,14.83
2019-04-01T21:38:14.517Z,14.45
2019-04-01T21:40:43.501Z,14.73
2019-04-01T21:43:11.648Z,15.45
2019-04-01T21:45:45.520Z,15.23
2019-04-01T21:48:13.825Z,15.30
2019-04-01T21:50:40.984Z,14.93
2019-04-01T21:53:08.263Z,15.72
2019-04-01T21:55:35.433Z,15.18
2019-04-01T21:58:02.814Z,15.55
2019-04-01T22:00:39.097Z,15.05
2019-04-01T22:03:06.905Z,15.35
2019-04-01T22:05:34.541Z,14.55
2019-04-01T22:08:01.893Z,14.25
2019-04-01T22:10:29.319Z,16.02
2019-04-01T22:12:57.522Z,15.58
2019-04-01T22:15:24.754Z,15.25
2019-04-01T22:17:52.270Z,15.60
2019-04-01T22:20:20.065Z,15.30
2019-04-01T22:22:47.986Z,15.43
2019-04-01T22:25:15.885Z,15.40
2019-04-01T22:27:42.689Z,15.98
2019-04-01T22:30:10.436Z,15.53
2019-04-01T22:32:38.124Z,16.15
2019-04-01T22:35:07.970Z,16.93
2019-04-01T22:37:34.551Z,16.87
2019-04-01T22:40:01.904Z,17.37
2019-04-01T22:42:28.867Z,16.60
2019-04-01T22:44:55.824Z,16.57
2019-04-01T22:47:24.323Z,16.15
2019-04-01T22:49:51.548Z,16.25
2019-04-01T22:52:19.932Z,16.82
2019-04-01T22:54:48.711Z,17.55
2019-04-01T22:57:16.037Z,17.35
2019-04-01T22:59:43.025Z,17.50
2019-04-01T23:02:10.161Z,16.55
2019-04-01T23:04:37.177Z,17.25
2019-04-01T23:07:05.269Z,18.20
2019-04-01T23:09:32.253Z,17.75
2019-04-01T23:12:00.172Z,19.32
2019-04-01T23:14:27.346Z,19.57
2019-04-01T23:16:54.555Z,18.95
2019-04-01T23:19:21.759Z,18.57
2019-04-01T23:21:49.144Z,19.65
2019-04-01T23:24:16.318Z,19.17
2019-04-01T23:26:44.280Z,20.52
2019-04-01T23:29:11.426Z,20.48
2019-04-01T23:31:41.008Z,20.32
2019-04-01T23:34:08.012Z,19.80
2019-04-01T23:36:35.098Z,19.73
2019-04-01T23:39:05.169Z,21.12
2019-04-01T23:41:32.558Z,21.05
2019-04-01T23:43:59.418Z,19.75
2019-04-01T23:46:26.708Z,20.45
2019-04-01T23:48:53.601Z,20.15
2019-04-01T23:51:20.643Z,20.52
2019-04-01T23:53:47.613Z,20.55
2019-04-01T23:56:16.782Z,19.60
2019-04-01T23:58:43.829Z,21.07
